createdAt,value
2023-04-13T00:02:56.230Z,99336.96
2023-04-13T00:17:59.952Z,99313.95
2023-04-13T00:33:03.951Z,99316.72
2023-04-13T00:48:11.107Z,99320.06
2023-04-13T01:03:14.343Z,99289.11
2023-04-13T01:18:18.770Z,99268.73
2023-04-13T01:33:23.120Z,99283.90
2023-04-13T01:48:39.352Z,99293.08
2023-04-13T02:04:09.790Z,99300.52
2023-04-13T02:19:15.504Z,99310.30
2023-04-13T02:34:18.658Z,99312.64
2023-04-13T02:49:21.901Z,99327.86
2023-04-13T03:04:46.080Z,99324.95
2023-04-13T03:19:51.070Z,99308.98
2023-04-13T03:34:55.769Z,99323.09
2023-04-13T03:50:00.308Z,99350.69
2023-04-13T04:05:06.140Z,99350.32
2023-04-13T04:20:10.770Z,99364.24
2023-04-13T04:35:17.339Z,99377.13
2023-04-13T04:50:26.197Z,99362.56
2023-04-13T05:05:37.791Z,99347.13
2023-04-13T05:20:44.473Z,99351.02
2023-04-13T05:35:47.899Z,99346.11
2023-04-13T05:50:59.462Z,99362.29
2023-04-13T06:06:06.120Z,99372.09
2023-04-13T06:21:09.315Z,99374.86
2023-04-13T06:36:12.383Z,99377.80
2023-04-13T06:51:16.011Z,99368.23
2023-04-13T07:06:19.691Z,99361.23
2023-04-13T07:21:23.079Z,99369.02
2023-04-13T07:36:32.878Z,99365.96
2023-04-13T07:51:40.988Z,99355.73
2023-04-13T08:06:44.634Z,99357.41
2023-04-13T08:21:48.209Z,99356.94
2023-04-13T08:36:51.330Z,99347.58
2023-04-13T08:52:00.040Z,99344.15
2023-04-13T09:07:05.087Z,99351.73
2023-04-13T09:22:14.245Z,99362.30
2023-04-13T09:37:18.768Z,99354.97
2023-04-13T09:52:23.800Z,99357.07
2023-04-13T10:07:30.217Z,99366.75
2023-04-13T10:22:34.362Z,99371.02
2023-04-13T10:37:40.000Z,99379.02
2023-04-13T10:52:53.809Z,99380.92
2023-04-13T11:07:57.134Z,99375.23
2023-04-13T11:23:06.387Z,99373.61
2023-04-13T11:38:20.472Z,99381.16
2023-04-13T11:53:23.770Z,99376.77
2023-04-13T12:08:27.005Z,99368.68
2023-04-13T12:23:31.148Z,99369.14
2023-04-13T12:38:34.790Z,99365.39
2023-04-13T12:53:38.192Z,99357.00
2023-04-13T13:08:41.344Z,99354.08
2023-04-13T13:23:45.748Z,99355.98
2023-04-13T13:38:49.249Z,99355.07
2023-04-13T13:53:52.829Z,99362.47
2023-04-13T14:08:56.490Z,99371.95
2023-04-13T14:23:59.719Z,99374.08
2023-04-13T14:39:04.996Z,99375.27
2023-04-13T14:54:09.337Z,99380.54
2023-04-13T15:09:13.202Z,99383.27
2023-04-13T15:24:16.453Z,99384.95
2023-04-13T15:39:19.883Z,99390.27
2023-04-13T15:54:23.363Z,99394.88
2023-04-13T16:09:29.720Z,99403.27
2023-04-13T16:24:33.831Z,99410.55
2023-04-13T16:39:37.058Z,99417.46
2023-04-13T16:54:46.924Z,99431.30
2023-04-13T17:09:51.347Z,99434.30
2023-04-13T17:24:55.743Z,99444.48
2023-04-13T17:40:00.048Z,99464.44
2023-04-13T17:55:04.063Z,99477.84
2023-04-13T18:10:07.781Z,99484.91
2023-04-13T18:25:11.156Z,99501.36
2023-04-13T18:40:14.693Z,99508.19
2023-04-13T18:55:18.730Z,99530.58
2023-04-13T19:10:22.752Z,99543.46
2023-04-13T19:25:26.877Z,99540.48
2023-04-13T19:40:31.625Z,99553.71
2023-04-13T19:55:35.469Z,99555.73
2023-04-13T20:10:39.091Z,99569.86
2023-04-13T20:25:42.930Z,99570.48
2023-04-13T20:40:48.499Z,99571.77
2023-04-13T20:55:51.770Z,99572.48
2023-04-13T21:10:54.851Z,99572.11
2023-04-13T21:25:57.996Z,99583.39
2023-04-13T21:41:03.575Z,99591.13
2023-04-13T21:56:06.856Z,99590.15
2023-04-13T22:11:10.979Z,99600.83
2023-04-13T22:26:14.010Z,99608.26
2023-04-13T22:41:17.066Z,99618.25
2023-04-13T22:56:20.146Z,99620.77
2023-04-13T23:11:23.330Z,99627.81
2023-04-13T23:26:26.513Z,99629.67
2023-04-13T23:41:29.574Z,99625.52
2023-04-13T23:56:34.086Z,99624.24
